Condiciones actuales en los principales Aeropuertos de España-Datos Metar

 

LEAL - Alicante
Actualización: 01/07/2022 08:30
Partly Cloudy
Partly Cloudy
 Viento del E
Viento: E 15 km/h
Temperatura: 25°C
Rocío: 21°C
Humedad: 79%
Barómetro: 1015 hPa
Nubosidad: Partly Cloudy
Visibilidad: 10 km
Cloud details: Partly Cloudy 366 m
Partly Cloudy 610 m
2022/07/01 06:30 LEAL 010630Z 08008KT 060V140 9999 SCT012 SCT020 25/21 Q1015 NOSIG
LEAB - Albacete
Actualización: 01/07/2022 08:30
Few Clouds
Few Clouds
 Viento del ESE
Viento: ESE 7 km/h
Temperatura: 19°C
Rocío: 15°C
Humedad: 78%
Barómetro: 1018 hPa
Nubosidad: Few Clouds
Visibilidad: 10 km
Cloud details: Few Clouds 396 m
2022/07/01 06:30 LEAB 010630Z 12004KT 090V160 9999 FEW013 19/15 Q1018 NOSIG
LEAM - Almería
Actualización: 01/07/2022 08:30
Despejado
Despejado
 Viento del E
Viento: E 17 km/h
Temperatura: 23°C
Rocío: 18°C
Humedad: 74%
Barómetro: 1014 hPa
Resumen: Despejado
Visibilidad: greater than 10 km
2022/07/01 06:30 LEAM 010630Z 09009KT CAVOK 23/18 Q1014
 
LEAS - Asturias/Aviles
Actualización: 01/07/2022 08:30
Despejado
Despejado
 Viento del SO
Viento: SO 9 km/h
Temperatura: 14°C
Rocío: 11°C
Humedad: 82%
Barómetro: 1020 hPa
Resumen: Despejado
Visibilidad: greater than 10 km
2022/07/01 06:30 LEAS 010630Z 22005KT 190V250 CAVOK 14/11 Q1020 NOSIG
LEBZ - Badajoz/Talavera la Real
Actualización: 01/07/2022 08:30
Despejado
Despejado
 Viento del OSO
Viento: OSO 7 km/h
Temperatura: 17°C
Rocío: 10°C
Humedad: 64%
Barómetro: 1015 hPa
Resumen: Despejado
Visibilidad: greater than 10 km
2022/07/01 06:30 LEBZ 010630Z 24004KT CAVOK 17/10 Q1015
LEBL - Barcelona
Actualización: 01/07/2022 08:30
Partly Cloudy
Partly Cloudy
 Viento del NNO
Viento: NNO 15 km/h, Racha: 39 km/h
Temperatura: 22°C
Rocío: 10°C
Humedad: 47%
Barómetro: 1017 hPa
Nubosidad: Partly Cloudy
Visibilidad: 10 km
Cloud details: Few Clouds 762 m
Partly Cloudy 1737 m
2022/07/01 06:30 LEBL 010630Z 33008G21KT 9999 FEW025 SCT057 22/10 Q1017 NOSIG
 
LEBB - Bilbao
Actualización: 01/07/2022 08:30
Despejado
Despejado
 Viento del E
Viento: E 6 km/h
Temperatura: 13°C
Rocío: 11°C
Humedad: 88%
Barómetro: 1021 hPa
Resumen: Despejado
Visibilidad: greater than 10 km
2022/07/01 06:30 LEBB 010630Z 10003KT 030V140 CAVOK 13/11 Q1021 NOSIG
LEBG - Burgos/Villafría
Actualización: 01/07/2022 08:30
Despejado
Despejado
 Viento del NNE
Viento: NNE 7 km/h
Temperatura: 9°C
Wind Chill: 8°C
Rocío: 7°C
Humedad: 87%
Barómetro: 1021 hPa
Resumen: Despejado
Visibilidad: greater than 10 km
2022/07/01 06:30 LEBG 010630Z 02004KT CAVOK 09/07 Q1021
LEBA - Córdoba
Actualización: 01/07/2022 08:30
Despejado
Despejado
 Viento del varies
Viento: varies 2 km/h
Temperatura: 17°C
Rocío: 9°C
Humedad: 59%
Barómetro: 1014 hPa
Resumen: Despejado
Visibilidad: greater than 10 km
2022/07/01 06:30 LEBA 010630Z VRB01KT CAVOK 17/09 Q1014
 
LEGE - Gerona
Actualización: 01/07/2022 08:30
Mostly Cloudy
Mostly Cloudy
 Viento del NE
Viento: NE 9 km/h
Temperatura: 18°C
Rocío: 9°C
Humedad: 56%
Barómetro: 1017 hPa
Nubosidad: Mostly Cloudy
Visibilidad: 10 km
Cloud details: Mostly Cloudy 1067 m
2022/07/01 06:30 LEGE 010630Z 04005KT 010V080 9999 BKN035 18/09 Q1017
LEGR - Granada
Actualización: 01/07/2022 08:30
Despejado
Despejado
 Viento del calm
Viento: Calma
Temperatura: 18°C
Rocío: 6°C
Humedad: 46%
Barómetro: 1016 hPa
Resumen: Despejado
Visibilidad: greater than 10 km
2022/07/01 06:30 LEGR 010630Z 00000KT CAVOK 18/06 Q1016
GCHI - Hierro
Actualización: 01/07/2022 08:30
Mostly Cloudy
Mostly Cloudy
 Viento del N
Viento: N 24 km/h
Temperatura: 21°C
Rocío: 15°C
Humedad: 69%
Barómetro: 1018 hPa
Nubosidad: Mostly Cloudy
Visibilidad: 10 km
Cloud details: Few Clouds 701 m
Mostly Cloudy 1097 m
2022/07/01 06:30 GCHI 010630Z 01013KT 330V040 9999 FEW023 BKN036 21/15 Q1018
 
LEIB - Ibiza
Actualización: 01/07/2022 08:30
Partly Cloudy
Partly Cloudy
 Viento del NE
Viento: NE 13 km/h
Temperatura: 24°C
Rocío: 21°C
Humedad: 83%
Barómetro: 1015 hPa
Nubosidad: Partly Cloudy
Visibilidad: 10 km
Cloud details: Partly Cloudy 549 m
2022/07/01 06:30 LEIB 010630Z 04007KT 9999 SCT018 24/21 Q1015 NOSIG
LEJR - Jerez de la Frontera
Actualización: 01/07/2022 08:30
Despejado
Despejado
 Viento del ESE
Viento: ESE 11 km/h
Temperatura: 17°C
Rocío: 14°C
Humedad: 83%
Barómetro: 1013 hPa
Resumen: Despejado
Visibilidad: greater than 10 km
2022/07/01 06:30 LEJR 010630Z 12006KT 070V150 CAVOK 17/14 Q1013
LECO - A Coruña
Actualización: 01/07/2022 08:30
Patches of fog, Poco nuboso
Patches of fog, Poco nuboso
 Viento del S
Viento: S 7 km/h
Temperatura: 11°C
Rocío: 11°C
Humedad: 100%
Barómetro: 1019 hPa
Resumen: Patches of Fog
Nubosidad: Few Clouds
Visibilidad: 10 km
Cloud details: Few Clouds 30 m
2022/07/01 06:30 LECO 010630Z 18004KT 9999 0400E R21/P2000 R03/0900U BCFG FEW001 11/11 Q1019 TEMPO 0300 FG
 
GCLA - La Palma
Actualización: 01/07/2022 08:30
Mostly Cloudy
Mostly Cloudy
 Viento del NNE
Viento: NNE 24 km/h
Temperatura: 20°C
Rocío: 17°C
Humedad: 83%
Barómetro: 1019 hPa
Nubosidad: Mostly Cloudy
Visibilidad: 10 km
Cloud details: Partly Cloudy 518 m
Mostly Cloudy 671 m
2022/07/01 06:30 GCLA 010630Z 02013KT 350V060 9999 SCT017 BKN022 20/17 Q1019 REDZ
GCRR - Lanzarote
Actualización: 01/07/2022 08:30
Cubierto
Cubierto
 Viento del N
Viento: N 19 km/h
Temperatura: 20°C
Rocío: 15°C
Humedad: 73%
Barómetro: 1017 hPa
Nubosidad: Cubierto
Visibilidad: 10 km
Cloud details: Few Clouds 610 m
Cubierto 1067 m
2022/07/01 06:30 GCRR 010630Z 01010KT 9999 FEW020 OVC035 20/15 Q1017
GCLP - Las Palmas
Actualización: 01/07/2022 08:30
Mostly Cloudy
Mostly Cloudy
 Viento del NNO
Viento: NNO 30 km/h
Temperatura: 20°C
Rocío: 15°C
Humedad: 73%
Barómetro: 1017 hPa
Nubosidad: Mostly Cloudy
Visibilidad: 10 km
Cloud details: Few Clouds 701 m
Partly Cloudy 914 m
Mostly Cloudy 1219 m
2022/07/01 06:30 GCLP 010630Z 34016KT 9999 FEW023 SCT030 BKN040 20/15 Q1017 NOSIG
 
LELN - León
Actualización: 01/07/2022 08:30
Despejado
Despejado
 Viento del N
Viento: N 6 km/h
Temperatura: 9°C
Rocío: 5°C
Humedad: 76%
Barómetro: 1021 hPa
Resumen: Despejado
Visibilidad: greater than 10 km
2022/07/01 06:30 LELN 010630Z 35003KT 320V030 CAVOK 09/05 Q1021
LELO - Logroño
Actualización: 01/07/2022 08:30
Despejado
Despejado
 Viento del O
Viento: O 6 km/h
Temperatura: 12°C
Rocío: 8°C
Humedad: 77%
Barómetro: 1021 hPa
Resumen: Despejado
Visibilidad: greater than 10 km
2022/07/01 06:30 LELO 010630Z 28003KT 240V340 CAVOK 12/08 Q1021
LECV - Madrid/Colmenar
Actualización: 01/07/2022 08:30
Despejado
Despejado
 Viento del NNE
Viento: NNE 11 km/h
Temperatura: 17°C
Rocío: 5°C
Humedad: 45%
Barómetro: 1019 hPa
Resumen: Despejado
Visibilidad: greater than 10 km
2022/07/01 06:30 LECV 010630Z 02006KT CAVOK 17/05 Q1019
 
LEMD - Madrid/Barajas
Actualización: 01/07/2022 08:30
Despejado
Despejado
 Viento del N
Viento: N 11 km/h
Temperatura: 17°C
Rocío: 7°C
Humedad: 52%
Barómetro: 1018 hPa
Resumen: Despejado
Visibilidad: greater than 10 km
2022/07/01 06:30 LEMD 010630Z 36006KT 340V040 CAVOK 17/07 Q1018 NOSIG
LEVS - Madrid/Cuatro Vientos
Actualización: 01/07/2022 08:30
Despejado
Despejado
 Viento del N
Viento: N 11 km/h
Temperatura: 17°C
Rocío: 7°C
Humedad: 52%
Barómetro: 1018 hPa
Resumen: Despejado
Visibilidad: greater than 10 km
2022/07/01 06:30 LEVS 010630Z 01006KT 320V050 CAVOK 17/07 Q1018
LEGT - Madrid/Getafe
Actualización: 01/07/2022 08:30
Despejado
Despejado
 Viento del NNE
Viento: NNE 17 km/h
Temperatura: 18°C
Rocío: 7°C
Humedad: 49%
Barómetro: 1018 hPa
Resumen: Despejado
Visibilidad: greater than 10 km
2022/07/01 06:30 LEGT 010630Z 02009KT CAVOK 18/07 Q1018
 
LETO - Madrid/Torrejón
Actualización: 01/07/2022 08:30
Despejado
Despejado
 Viento del NE
Viento: NE 17 km/h
Temperatura: 17°C
Rocío: 7°C
Humedad: 52%
Barómetro: 1018 hPa
Resumen: Despejado
Visibilidad: greater than 10 km
2022/07/01 06:30 LETO 010630Z 04009KT 010V070 CAVOK 17/07 Q1018 NOSIG
LEMG - Málaga
Actualización: 01/07/2022 08:30
Despejado
Despejado
 Viento del varies
Viento: varies 4 km/h
Temperatura: 21°C
Rocío: 17°C
Humedad: 78%
Barómetro: 1013 hPa
Resumen: Despejado
Visibilidad: greater than 10 km
2022/07/01 06:30 LEMG 010630Z VRB02KT CAVOK 21/17 Q1013 NOSIG
GEML - Melilla
Actualización: 01/07/2022 08:30
Despejado
Despejado
 Viento del calm
Viento: Calma
Temperatura: 23°C
Rocío: 17°C
Humedad: 69%
Barómetro: 1014 hPa
Resumen: Despejado
Visibilidad: greater than 10 km
2022/07/01 06:30 GEML 010630Z 00000KT CAVOK 23/17 Q1014
 
LEMH - Mahón
Actualización: 01/07/2022 08:30
Few Clouds
Few Clouds
 Viento del NNE
Viento: NNE 33 km/h
Temperatura: 23°C
Rocío: 17°C
Humedad: 69%
Barómetro: 1015 hPa
Nubosidad: Few Clouds
Visibilidad: 10 km
Cloud details: Few Clouds 488 m
2022/07/01 06:30 LEMH 010630Z 02018KT 9999 FEW016 23/17 Q1015
LEMO - Morón de La Frontera
Actualización: 01/07/2022 09:00
Despejado
Despejado
 Viento del calm
Viento: Calma
Temperatura: 19°C
Rocío: 9°C
Humedad: 52%
Barómetro: 1014 hPa
Resumen: Despejado
Visibilidad: greater than 10 km
2022/07/01 07:00 LEMO 010700Z 00000KT CAVOK 19/09 Q1014 NOSIG
LEMI - Murcia/Corvera
Actualización: 01/07/2022 08:30
Partly Cloudy
Partly Cloudy
 Viento del NNE
Viento: NNE 7 km/h
Temperatura: 22°C
Rocío: 19°C
Humedad: 83%
Barómetro: 1017 hPa
Nubosidad: Partly Cloudy
Visibilidad: 10 km
Cloud details: Partly Cloudy 457 m
2022/07/01 06:30 LEMI 010630Z 03004KT 360V080 9999 SCT015 22/19 Q1017
 
LERI - Murcia/Alcantarilla
Actualización: 01/07/2022 08:30
Mostly Cloudy
Mostly Cloudy
 Viento del S
Viento: S 6 km/h
Temperatura: 22°C
Rocío: 18°C
Humedad: 78%
Barómetro: 1016 hPa
Nubosidad: Mostly Cloudy
Visibilidad: 6 km
Cloud details: Few Clouds 152 m
Mostly Cloudy 366 m
2022/07/01 06:30 LERI 010630Z 19003KT 160V230 6000 FEW005 BKN012 22/18 Q1016 NOSIG
LELC - Murcia/San Javier
Actualización: 01/07/2022 08:30
Partly Cloudy
Partly Cloudy
 Viento del NNO
Viento: NNO 9 km/h
Temperatura: 23°C
Rocío: 21°C
Humedad: 89%
Barómetro: 1016 hPa
Nubosidad: Partly Cloudy
Visibilidad: 9 km
Cloud details: Partly Cloudy 457 m
2022/07/01 06:30 LELC 010630Z 34005KT 310V020 9000 SCT015 23/21 Q1016 NOSIG
LEPA - Palma de Mallorca
Actualización: 01/07/2022 08:30
Few Clouds
Few Clouds
 Viento del ENE
Viento: ENE 31 km/h
Temperatura: 24°C
Rocío: 18°C
Humedad: 69%
Barómetro: 1015 hPa
Nubosidad: Few Clouds
Visibilidad: 10 km
Cloud details: Few Clouds 671 m
2022/07/01 06:30 LEPA 010630Z 06017KT 030V090 9999 FEW022 24/18 Q1015 NOSIG
 
LEPP - Pamplona
Actualización: 01/07/2022 08:30
Few Clouds
Few Clouds
 Viento del calm
Viento: Calma
Temperatura: 12°C
Rocío: 9°C
Humedad: 82%
Barómetro: 1020 hPa
Nubosidad: Few Clouds
Visibilidad: 10 km
Cloud details: Few Clouds 518 m
2022/07/01 06:30 LEPP 010630Z 00000KT 9999 FEW017 12/09 Q1020
LERS - Reus
Actualización: 01/07/2022 08:30
Few Clouds
Few Clouds
 Viento del E
Viento: E 6 km/h
Temperatura: 21°C
Rocío: 13°C
Humedad: 60%
Barómetro: 1017 hPa
Nubosidad: Few Clouds
Visibilidad: 10 km
Cloud details: Few Clouds 914 m
2022/07/01 06:30 LERS 010630Z 09003KT 050V150 9999 FEW030 21/13 Q1017
LERT - Rota
Actualización: 01/07/2022 08:30
Despejado
Despejado
 Viento del E
Viento: E 11 km/h
Temperatura: 18°C
Rocío: 17°C
Humedad: 94%
Barómetro: 1013 hPa
Resumen: Despejado
Visibilidad: greater than 10 km
2022/07/01 06:30 LERT 010630Z 08006KT CAVOK 18/17 Q1013 NOSIG
 
LELL - Sabadell
Actualización: 01/07/2022 08:30
Few Clouds
Few Clouds
 Viento del OSO
Viento: OSO 6 km/h
Temperatura: 22°C
Rocío: 10°C
Humedad: 47%
Barómetro: 1017 hPa
Nubosidad: Few Clouds
Visibilidad: 10 km
Cloud details: Few Clouds 1981 m
2022/07/01 06:30 LELL 010630Z 25003KT 210V290 9999 FEW065 22/10 Q1017
LESA - Salamanca
Actualización: 01/07/2022 08:30
Despejado
Despejado
 Viento del varies
Viento: varies 4 km/h
Temperatura: 11°C
Rocío: 7°C
Humedad: 77%
Barómetro: 1019 hPa
Resumen: Despejado
Visibilidad: greater than 10 km
2022/07/01 06:30 LESA 010630Z VRB02KT CAVOK 11/07 Q1019
LESO - San Sebastián
Actualización: 01/07/2022 08:30
Few Clouds
Few Clouds
 Viento del SSE
Viento: SSE 7 km/h, Racha: 26 km/h
Temperatura: 14°C
Rocío: 12°C
Humedad: 88%
Barómetro: 1021 hPa
Nubosidad: Few Clouds
Visibilidad: 10 km
Cloud details: Few Clouds 1676 m
2022/07/01 06:30 LESO 010630Z 15004G14KT 110V170 9999 FEW055 14/12 Q1021
 
LEXJ - Santander
Actualización: 01/07/2022 08:30
Despejado
Despejado
 Viento del varies
Viento: varies 2 km/h
Temperatura: 13°C
Rocío: 10°C
Humedad: 82%
Barómetro: 1020 hPa
Resumen: Despejado
Visibilidad: greater than 10 km
2022/07/01 06:30 LEXJ 010630Z VRB01KT CAVOK 13/10 Q1020
LEPA - Palma de Mallorca
Actualización: 01/07/2022 08:30
Few Clouds
Few Clouds
 Viento del ENE
Viento: ENE 31 km/h
Temperatura: 24°C
Rocío: 18°C
Humedad: 69%
Barómetro: 1015 hPa
Nubosidad: Few Clouds
Visibilidad: 10 km
Cloud details: Few Clouds 671 m
2022/07/01 06:30 LEPA 010630Z 06017KT 030V090 9999 FEW022 24/18 Q1015 NOSIG
LEPP - Pamplona
Actualización: 01/07/2022 08:30
Few Clouds
Few Clouds
 Viento del calm
Viento: Calma
Temperatura: 12°C
Rocío: 9°C
Humedad: 82%
Barómetro: 1020 hPa
Nubosidad: Few Clouds
Visibilidad: 10 km
Cloud details: Few Clouds 518 m
2022/07/01 06:30 LEPP 010630Z 00000KT 9999 FEW017 12/09 Q1020
 
LEST - Santiago de Compostela
Actualización: 01/07/2022 08:30
Despejado
Despejado
 Viento del varies
Viento: varies 2 km/h
Temperatura: 8°C
Rocío: 8°C
Humedad: 100%
Barómetro: 1019 hPa
Resumen: Despejado
Visibilidad: greater than 10 km
2022/07/01 06:30 LEST 010630Z VRB01KT CAVOK 08/08 Q1019 NOSIG
LEZL - Sevilla
Actualización: 01/07/2022 08:30
Despejado
Despejado
 Viento del S
Viento: S 6 km/h
Temperatura: 19°C
Rocío: 13°C
Humedad: 68%
Barómetro: 1014 hPa
Resumen: Despejado
Visibilidad: greater than 10 km
2022/07/01 06:30 LEZL 010630Z 18003KT 140V210 CAVOK 19/13 Q1014 NOSIG
GCXO - Tenerife
Actualización: 01/07/2022 08:30
Drizzle, Muy nuboso
Drizzle, Muy nuboso
 Viento del ONO
Viento: ONO 28 km/h
Temperatura: 15°C
Rocío: 15°C
Humedad: 100%
Barómetro: 1019 hPa
Resumen: Drizzle
Nubosidad: Mostly Cloudy
Visibilidad: 8 km
Cloud details: Few Clouds 61 m
Mostly Cloudy 152 m
2022/07/01 06:30 GCXO 010630Z 30015KT 280V340 8000 DZ FEW002 BKN005 15/15 Q1019 NOSIG
 
GCTS - Tenerife-Sur
Actualización: 01/07/2022 08:30
Cubierto
Cubierto
 Viento del E
Viento: E 24 km/h
Temperatura: 20°C
Rocío: 15°C
Humedad: 73%
Barómetro: 1017 hPa
Nubosidad: Cubierto
Visibilidad: 10 km
Cloud details: Cubierto 1189 m
2022/07/01 06:30 GCTS 010630Z 09013KT 9999 OVC039 20/15 Q1017 NOSIG
LEVC - Valencia
Actualización: 01/07/2022 08:30
Mostly Cloudy
Mostly Cloudy
 Viento del NO
Viento: NO 6 km/h
Temperatura: 22°C
Rocío: 18°C
Humedad: 78%
Barómetro: 1016 hPa
Nubosidad: Mostly Cloudy
Visibilidad: 10 km
Cloud details: Mostly Cloudy 975 m
2022/07/01 06:30 LEVC 010630Z 31003KT 290V350 9999 BKN032 22/18 Q1016 NOSIG
LEVD - Valladolid
Actualización: 01/07/2022 08:30
Despejado
Despejado
 Viento del E
Viento: E 17 km/h
Temperatura: 11°C
Rocío: 5°C
Humedad: 67%
Barómetro: 1019 hPa
Resumen: Despejado
Visibilidad: greater than 10 km
2022/07/01 06:30 LEVD 010630Z 08009KT 050V110 CAVOK 11/05 Q1019
 
LEVX - Vigo
Actualización: 01/07/2022 08:30
Despejado
Despejado
 Viento del SO
Viento: SO 4 km/h
Temperatura: 13°C
Rocío: 12°C
Humedad: 94%
Barómetro: 1018 hPa
Resumen: Despejado
Visibilidad: greater than 10 km
2022/07/01 06:30 LEVX 010630Z 22002KT CAVOK 13/12 Q1018 NOSIG
LEVT - Vitoria
Actualización: 01/07/2022 08:30
Niebla, Cubierto
Niebla, Cubierto
 Viento del calm
Viento: Calma
Temperatura: 8°C
Rocío: 8°C
Humedad: 100%
Barómetro: 1021 hPa
Resumen: Niebla
Nubosidad: Cubierto
Visibilidad: 1 km
Cloud details: Cubierto 61 m
2022/07/01 06:30 LEVT 010630Z 00000KT 0500 R04/0650N R22/0700N FG VV002 08/08 Q1021
LEZG - Zaragoza
Actualización: 01/07/2022 08:30
Despejado
Despejado
 Viento del ONO
Viento: ONO 17 km/h
Temperatura: 15°C
Rocío: 8°C
Humedad: 63%
Barómetro: 1020 hPa
Resumen: Despejado
Visibilidad: greater than 10 km
2022/07/01 06:30 LEZG 010630Z 30009KT CAVOK 15/08 Q1020

La estación de MeteoMurcia.com, publica sus datos en los siguientes proyectos:

Weather Underground PWS IMURCIAP2 Meteoclimatic www.awekas.at

W3Counter
Web Analytics